sensor_id;sensor_type;location;lat;lon;timestamp;temperature;humidity
3005;DHT22;1512;51.486;6.610;2023-03-05T00:03:07;5.20;99.90
3005;DHT22;1512;51.486;6.610;2023-03-05T00:07:16;5.00;99.90
3005;DHT22;1512;51.486;6.610;2023-03-05T00:11:26;5.10;99.90
3005;DHT22;1512;51.486;6.610;2023-03-05T00:15:40;5.10;99.90
3005;DHT22;1512;51.486;6.610;2023-03-05T00:19:49;5.20;99.90
3005;DHT22;1512;51.486;6.610;2023-03-05T00:23:59;5.10;99.90
3005;DHT22;1512;51.486;6.610;2023-03-05T00:28:09;5.10;99.90
3005;DHT22;1512;51.486;6.610;2023-03-05T00:32:17;5.00;99.90
3005;DHT22;1512;51.486;6.610;2023-03-05T00:36:27;5.00;99.90
3005;DHT22;1512;51.486;6.610;2023-03-05T00:40:37;5.20;99.90
3005;DHT22;1512;51.486;6.610;2023-03-05T00:44:46;5.10;99.90
3005;DHT22;1512;51.486;6.610;2023-03-05T00:48:55;5.00;99.90
3005;DHT22;1512;51.486;6.610;2023-03-05T00:53:04;5.20;99.90
3005;DHT22;1512;51.486;6.610;2023-03-05T00:57:12;5.10;99.90
3005;DHT22;1512;51.486;6.610;2023-03-05T01:01:21;5.20;99.90
3005;DHT22;1512;51.486;6.610;2023-03-05T01:05:30;5.10;99.90
3005;DHT22;1512;51.486;6.610;2023-03-05T01:09:39;5.10;99.90
3005;DHT22;1512;51.486;6.610;2023-03-05T01:13:48;5.10;99.90
3005;DHT22;1512;51.486;6.610;2023-03-05T01:17:56;5.00;99.90
3005;DHT22;1512;51.486;6.610;2023-03-05T01:22:05;5.00;99.90
3005;DHT22;1512;51.486;6.610;2023-03-05T01:26:13;5.10;99.90
3005;DHT22;1512;51.486;6.610;2023-03-05T01:30:22;5.10;99.90
3005;DHT22;1512;51.486;6.610;2023-03-05T01:34:31;4.90;1.00
3005;DHT22;1512;51.486;6.610;2023-03-05T01:38:41;5.00;99.90
3005;DHT22;1512;51.486;6.610;2023-03-05T01:47:10;4.90;1.00
3005;DHT22;1512;51.486;6.610;2023-03-05T01:51:21;4.90;1.00
3005;DHT22;1512;51.486;6.610;2023-03-05T01:55:31;4.90;99.90
3005;DHT22;1512;51.486;6.610;2023-03-05T01:59:45;5.00;99.90
3005;DHT22;1512;51.486;6.610;2023-03-05T02:04:15;4.90;99.90
3005;DHT22;1512;51.486;6.610;2023-03-05T02:08:26;4.80;1.00
3005;DHT22;1512;51.486;6.610;2023-03-05T02:12:34;4.80;1.00
3005;DHT22;1512;51.486;6.610;2023-03-05T02:16:43;4.90;99.90
3005;DHT22;1512;51.486;6.610;2023-03-05T02:25:20;4.90;99.90
3005;DHT22;1512;51.486;6.610;2023-03-05T02:29:29;4.80;1.00
3005;DHT22;1512;51.486;6.610;2023-03-05T02:33:39;4.80;99.90
3005;DHT22;1512;51.486;6.610;2023-03-05T02:37:48;4.80;1.00
3005;DHT22;1512;51.486;6.610;2023-03-05T02:41:56;4.70;1.00
3005;DHT22;1512;51.486;6.610;2023-03-05T02:50:21;4.70;99.90
3005;DHT22;1512;51.486;6.610;2023-03-05T02:54:30;4.70;1.00
3005;DHT22;1512;51.486;6.610;2023-03-05T02:58:38;4.80;99.90
3005;DHT22;1512;51.486;6.610;2023-03-05T03:02:47;4.80;99.90
3005;DHT22;1512;51.486;6.610;2023-03-05T03:06:56;4.70;1.00
3005;DHT22;1512;51.486;6.610;2023-03-05T03:11:06;4.70;1.00
3005;DHT22;1512;51.486;6.610;2023-03-05T03:15:16;4.80;1.00
3005;DHT22;1512;51.486;6.610;2023-03-05T03:19:25;4.80;1.00
3005;DHT22;1512;51.486;6.610;2023-03-05T03:23:34;4.60;1.00
3005;DHT22;1512;51.486;6.610;2023-03-05T03:28:02;4.50;1.00
3005;DHT22;1512;51.486;6.610;2023-03-05T03:32:10;4.70;1.00
3005;DHT22;1512;51.486;6.610;2023-03-05T03:36:19;4.60;1.00
3005;DHT22;1512;51.486;6.610;2023-03-05T03:40:28;4.60;99.90
3005;DHT22;1512;51.486;6.610;2023-03-05T03:44:36;4.60;14.80
3005;DHT22;1512;51.486;6.610;2023-03-05T03:48:48;4.60;1.00
3005;DHT22;1512;51.486;6.610;2023-03-05T03:52:57;4.60;49.60
3005;DHT22;1512;51.486;6.610;2023-03-05T03:57:05;4.70;99.90
3005;DHT22;1512;51.486;6.610;2023-03-05T04:01:14;4.60;99.90
3005;DHT22;1512;51.486;6.610;2023-03-05T04:05:23;4.70;99.90
3005;DHT22;1512;51.486;6.610;2023-03-05T04:09:31;4.70;1.00
3005;DHT22;1512;51.486;6.610;2023-03-05T04:13:40;4.60;77.30
3005;DHT22;1512;51.486;6.610;2023-03-05T04:17:49;4.60;1.00
3005;DHT22;1512;51.486;6.610;2023-03-05T04:21:58;4.60;99.90
3005;DHT22;1512;51.486;6.610;2023-03-05T04:26:06;4.60;90.30
3005;DHT22;1512;51.486;6.610;2023-03-05T04:30:15;4.60;68.30
3005;DHT22;1512;51.486;6.610;2023-03-05T04:34:24;4.60;27.00
3005;DHT22;1512;51.486;6.610;2023-03-05T04:38:32;4.70;1.00
3005;DHT22;1512;51.486;6.610;2023-03-05T04:42:41;4.60;1.00
3005;DHT22;1512;51.486;6.610;2023-03-05T04:46:50;4.70;1.00
3005;DHT22;1512;51.486;6.610;2023-03-05T04:51:18;4.70;1.00
3005;DHT22;1512;51.486;6.610;2023-03-05T04:55:27;4.60;1.00
3005;DHT22;1512;51.486;6.610;2023-03-05T04:59:36;4.60;1.00
3005;DHT22;1512;51.486;6.610;2023-03-05T05:03:45;4.60;1.00
3005;DHT22;1512;51.486;6.610;2023-03-05T05:07:55;4.50;1.00
3005;DHT22;1512;51.486;6.610;2023-03-05T05:12:04;4.60;1.00
3005;DHT22;1512;51.486;6.610;2023-03-05T05:16:13;4.60;1.00
3005;DHT22;1512;51.486;6.610;2023-03-05T05:20:42;4.60;1.00
3005;DHT22;1512;51.486;6.610;2023-03-05T05:24:50;4.60;1.00
3005;DHT22;1512;51.486;6.610;2023-03-05T05:29:00;4.50;1.00
3005;DHT22;1512;51.486;6.610;2023-03-05T05:33:08;4.50;1.00
3005;DHT22;1512;51.486;6.610;2023-03-05T05:37:17;4.50;1.00
3005;DHT22;1512;51.486;6.610;2023-03-05T05:41:26;4.50;1.00
3005;DHT22;1512;51.486;6.610;2023-03-05T05:45:38;4.60;1.00
3005;DHT22;1512;51.486;6.610;2023-03-05T05:49:47;4.40;1.00
3005;DHT22;1512;51.486;6.610;2023-03-05T05:53:56;4.50;1.00
3005;DHT22;1512;51.486;6.610;2023-03-05T05:58:04;4.40;1.00
3005;DHT22;1512;51.486;6.610;2023-03-05T06:02:13;4.40;1.00
3005;DHT22;1512;51.486;6.610;2023-03-05T06:06:24;4.50;1.00
3005;DHT22;1512;51.486;6.610;2023-03-05T06:10:33;4.50;1.00
3005;DHT22;1512;51.486;6.610;2023-03-05T06:14:41;4.50;1.00
3005;DHT22;1512;51.486;6.610;2023-03-05T06:18:51;4.50;1.00
3005;DHT22;1512;51.486;6.610;2023-03-05T06:22:59;4.40;1.00
3005;DHT22;1512;51.486;6.610;2023-03-05T06:27:08;4.50;1.00
3005;DHT22;1512;51.486;6.610;2023-03-05T06:31:19;4.50;1.00
3005;DHT22;1512;51.486;6.610;2023-03-05T06:35:37;4.50;1.00
3005;DHT22;1512;51.486;6.610;2023-03-05T06:39:46;4.40;1.00
3005;DHT22;1512;51.486;6.610;2023-03-05T06:43:55;4.40;99.90
3005;DHT22;1512;51.486;6.610;2023-03-05T06:48:04;4.40;1.00
3005;DHT22;1512;51.486;6.610;2023-03-05T06:52:13;4.30;1.00
3005;DHT22;1512;51.486;6.610;2023-03-05T06:56:22;4.30;99.90
3005;DHT22;1512;51.486;6.610;2023-03-05T07:00:30;4.40;99.90
3005;DHT22;1512;51.486;6.610;2023-03-05T07:04:39;4.30;99.90
3005;DHT22;1512;51.486;6.610;2023-03-05T07:08:48;4.40;99.90
3005;DHT22;1512;51.486;6.610;2023-03-05T07:12:57;4.50;99.90
3005;DHT22;1512;51.486;6.610;2023-03-05T07:17:06;4.50;1.00
3005;DHT22;1512;51.486;6.610;2023-03-05T07:21:21;4.60;1.00
3005;DHT22;1512;51.486;6.610;2023-03-05T07:25:31;4.50;1.00
3005;DHT22;1512;51.486;6.610;2023-03-05T07:29:40;4.50;1.00
3005;DHT22;1512;51.486;6.610;2023-03-05T07:33:50;4.50;99.90
3005;DHT22;1512;51.486;6.610;2023-03-05T07:37:58;4.50;1.00
3005;DHT22;1512;51.486;6.610;2023-03-05T07:42:07;4.50;1.00
3005;DHT22;1512;51.486;6.610;2023-03-05T07:46:17;4.60;1.00
3005;DHT22;1512;51.486;6.610;2023-03-05T07:50:26;4.70;1.00
3005;DHT22;1512;51.486;6.610;2023-03-05T07:54:39;4.70;1.00
3005;DHT22;1512;51.486;6.610;2023-03-05T07:58:51;4.80;1.00
3005;DHT22;1512;51.486;6.610;2023-03-05T08:03:00;4.70;32.60
3005;DHT22;1512;51.486;6.610;2023-03-05T08:07:08;4.70;1.00
3005;DHT22;1512;51.486;6.610;2023-03-05T08:11:17;4.80;99.90
3005;DHT22;1512;51.486;6.610;2023-03-05T08:15:26;4.90;1.00
3005;DHT22;1512;51.486;6.610;2023-03-05T08:19:34;4.80;1.00
3005;DHT22;1512;51.486;6.610;2023-03-05T08:23:43;4.70;49.10
3005;DHT22;1512;51.486;6.610;2023-03-05T08:27:51;4.80;99.90
3005;DHT22;1512;51.486;6.610;2023-03-05T08:32:01;4.70;1.00
3005;DHT22;1512;51.486;6.610;2023-03-05T08:40:31;5.00;1.00
3005;DHT22;1512;51.486;6.610;2023-03-05T08:44:59;4.90;1.00
3005;DHT22;1512;51.486;6.610;2023-03-05T08:49:09;4.90;99.90
3005;DHT22;1512;51.486;6.610;2023-03-05T08:53:18;5.10;1.00
3005;DHT22;1512;51.486;6.610;2023-03-05T08:57:26;5.20;99.90
3005;DHT22;1512;51.486;6.610;2023-03-05T09:01:35;5.30;99.90
3005;DHT22;1512;51.486;6.610;2023-03-05T09:05:44;5.20;1.00
3005;DHT22;1512;51.486;6.610;2023-03-05T09:09:53;5.10;1.00
3005;DHT22;1512;51.486;6.610;2023-03-05T09:14:04;5.20;1.00
3005;DHT22;1512;51.486;6.610;2023-03-05T09:18:13;5.30;1.00
3005;DHT22;1512;51.486;6.610;2023-03-05T09:22:21;5.30;99.90
3005;DHT22;1512;51.486;6.610;2023-03-05T09:26:30;5.50;99.90
3005;DHT22;1512;51.486;6.610;2023-03-05T09:30:39;5.40;99.90
3005;DHT22;1512;51.486;6.610;2023-03-05T09:34:48;5.40;96.50
3005;DHT22;1512;51.486;6.610;2023-03-05T09:38:56;5.40;54.20
3005;DHT22;1512;51.486;6.610;2023-03-05T09:52:18;5.60;1.00
3005;DHT22;1512;51.486;6.610;2023-03-05T09:56:19;5.80;1.00
3005;DHT22;1512;51.486;6.610;2023-03-05T10:00:35;5.70;1.00
3005;DHT22;1512;51.486;6.610;2023-03-05T10:04:59;5.70;1.00
3005;DHT22;1512;51.486;6.610;2023-03-05T10:13:29;5.30;1.00
3005;DHT22;1512;51.486;6.610;2023-03-05T10:26:33;5.70;99.90
3005;DHT22;1512;51.486;6.610;2023-03-05T10:31:01;5.70;99.90
3005;DHT22;1512;51.486;6.610;2023-03-05T10:35:16;5.80;99.90
3005;DHT22;1512;51.486;6.610;2023-03-05T10:44:12;6.10;27.40
3005;DHT22;1512;51.486;6.610;2023-03-05T10:48:46;6.20;88.90
3005;DHT22;1512;51.486;6.610;2023-03-05T10:53:06;6.10;99.90
3005;DHT22;1512;51.486;6.610;2023-03-05T10:57:20;6.20;99.90
3005;DHT22;1512;51.486;6.610;2023-03-05T11:01:29;6.20;1.00
3005;DHT22;1512;51.486;6.610;2023-03-05T11:05:47;6.40;1.00
3005;DHT22;1512;51.486;6.610;2023-03-05T11:10:13;6.50;1.00
3005;DHT22;1512;51.486;6.610;2023-03-05T11:14:25;6.90;1.00
3005;DHT22;1512;51.486;6.610;2023-03-05T11:18:35;7.10;1.00
3005;DHT22;1512;51.486;6.610;2023-03-05T11:23:04;7.10;1.00
3005;DHT22;1512;51.486;6.610;2023-03-05T11:27:36;7.00;1.00
3005;DHT22;1512;51.486;6.610;2023-03-05T11:31:45;7.10;1.00
3005;DHT22;1512;51.486;6.610;2023-03-05T11:36:12;7.00;1.00
3005;DHT22;1512;51.486;6.610;2023-03-05T11:40:21;7.10;1.00
3005;DHT22;1512;51.486;6.610;2023-03-05T11:44:46;7.10;1.00
3005;DHT22;1512;51.486;6.610;2023-03-05T11:48:55;7.10;1.00
3005;DHT22;1512;51.486;6.610;2023-03-05T11:53:14;7.10;1.00
3005;DHT22;1512;51.486;6.610;2023-03-05T11:57:24;7.30;1.00
3005;DHT22;1512;51.486;6.610;2023-03-05T12:01:35;7.00;1.00
3005;DHT22;1512;51.486;6.610;2023-03-05T12:05:47;6.90;1.00
3005;DHT22;1512;51.486;6.610;2023-03-05T12:09:56;6.80;1.00
3005;DHT22;1512;51.486;6.610;2023-03-05T12:14:23;6.80;1.00
3005;DHT22;1512;51.486;6.610;2023-03-05T12:23:02;6.60;1.00
3005;DHT22;1512;51.486;6.610;2023-03-05T12:27:13;6.50;1.00
3005;DHT22;1512;51.486;6.610;2023-03-05T12:31:36;6.60;1.00
3005;DHT22;1512;51.486;6.610;2023-03-05T12:35:46;6.50;1.00
3005;DHT22;1512;51.486;6.610;2023-03-05T12:44:27;6.80;1.00
3005;DHT22;1512;51.486;6.610;2023-03-05T12:48:41;6.80;1.00
3005;DHT22;1512;51.486;6.610;2023-03-05T12:52:51;6.90;1.00
3005;DHT22;1512;51.486;6.610;2023-03-05T12:57:24;7.00;1.00
3005;DHT22;1512;51.486;6.610;2023-03-05T13:01:33;7.00;1.00
3005;DHT22;1512;51.486;6.610;2023-03-05T13:05:49;7.00;1.00
3005;DHT22;1512;51.486;6.610;2023-03-05T13:09:59;6.90;1.00
3005;DHT22;1512;51.486;6.610;2023-03-05T13:18:48;6.80;1.00
3005;DHT22;1512;51.486;6.610;2023-03-05T13:27:28;7.00;1.00
3005;DHT22;1512;51.486;6.610;2023-03-05T13:36:01;6.90;1.00
3005;DHT22;1512;51.486;6.610;2023-03-05T13:40:27;7.00;1.00
3005;DHT22;1512;51.486;6.610;2023-03-05T13:44:36;6.90;1.00
3005;DHT22;1512;51.486;6.610;2023-03-05T13:48:45;7.00;1.00
3005;DHT22;1512;51.486;6.610;2023-03-05T13:52:54;6.90;1.00
3005;DHT22;1512;51.486;6.610;2023-03-05T13:57:06;7.00;1.00
3005;DHT22;1512;51.486;6.610;2023-03-05T14:05:32;7.10;1.00
3005;DHT22;1512;51.486;6.610;2023-03-05T14:09:49;7.00;1.00
3005;DHT22;1512;51.486;6.610;2023-03-05T14:14:20;6.90;1.00
3005;DHT22;1512;51.486;6.610;2023-03-05T14:18:29;6.90;1.00
3005;DHT22;1512;51.486;6.610;2023-03-05T14:22:40;7.10;1.00
3005;DHT22;1512;51.486;6.610;2023-03-05T14:26:52;7.00;1.00
3005;DHT22;1512;51.486;6.610;2023-03-05T14:31:03;7.20;1.00
3005;DHT22;1512;51.486;6.610;2023-03-05T14:35:23;7.20;1.00
3005;DHT22;1512;51.486;6.610;2023-03-05T14:48:01;7.20;1.00
3005;DHT22;1512;51.486;6.610;2023-03-05T14:52:18;7.10;1.00
3005;DHT22;1512;51.486;6.610;2023-03-05T14:56:28;7.30;1.00
3005;DHT22;1512;51.486;6.610;2023-03-05T15:00:37;7.30;1.00
3005;DHT22;1512;51.486;6.610;2023-03-05T15:04:45;7.40;1.00
3005;DHT22;1512;51.486;6.610;2023-03-05T15:08:54;7.20;1.00
3005;DHT22;1512;51.486;6.610;2023-03-05T15:13:03;7.10;1.00
3005;DHT22;1512;51.486;6.610;2023-03-05T15:17:20;7.10;1.00
3005;DHT22;1512;51.486;6.610;2023-03-05T15:21:24;7.10;1.00
3005;DHT22;1512;51.486;6.610;2023-03-05T15:25:33;7.10;1.00
3005;DHT22;1512;51.486;6.610;2023-03-05T15:29:41;7.30;1.00
3005;DHT22;1512;51.486;6.610;2023-03-05T15:33:50;7.10;1.00
3005;DHT22;1512;51.486;6.610;2023-03-05T15:37:59;7.10;1.00
3005;DHT22;1512;51.486;6.610;2023-03-05T15:42:07;7.00;1.00
3005;DHT22;1512;51.486;6.610;2023-03-05T15:46:16;7.10;1.00
3005;DHT22;1512;51.486;6.610;2023-03-05T15:50:44;7.10;1.00
3005;DHT22;1512;51.486;6.610;2023-03-05T15:54:52;7.10;1.00
3005;DHT22;1512;51.486;6.610;2023-03-05T15:59:01;7.20;1.00
3005;DHT22;1512;51.486;6.610;2023-03-05T16:03:10;7.30;1.00
3005;DHT22;1512;51.486;6.610;2023-03-05T16:07:19;7.00;1.00
3005;DHT22;1512;51.486;6.610;2023-03-05T16:11:31;7.10;1.00
3005;DHT22;1512;51.486;6.610;2023-03-05T16:15:41;7.10;1.00
3005;DHT22;1512;51.486;6.610;2023-03-05T16:19:52;6.90;1.00
3005;DHT22;1512;51.486;6.610;2023-03-05T16:24:01;6.90;1.00
3005;DHT22;1512;51.486;6.610;2023-03-05T16:28:10;6.70;1.00
3005;DHT22;1512;51.486;6.610;2023-03-05T16:32:19;6.70;1.00
3005;DHT22;1512;51.486;6.610;2023-03-05T16:36:29;6.60;1.00
3005;DHT22;1512;51.486;6.610;2023-03-05T16:40:38;6.60;1.00
3005;DHT22;1512;51.486;6.610;2023-03-05T16:44:48;6.60;1.00
3005;DHT22;1512;51.486;6.610;2023-03-05T16:48:58;6.60;1.00
3005;DHT22;1512;51.486;6.610;2023-03-05T16:53:06;6.50;1.00
3005;DHT22;1512;51.486;6.610;2023-03-05T16:57:15;6.50;1.00
3005;DHT22;1512;51.486;6.610;2023-03-05T17:01:24;6.50;1.00
3005;DHT22;1512;51.486;6.610;2023-03-05T17:05:36;6.50;1.00
3005;DHT22;1512;51.486;6.610;2023-03-05T17:09:45;6.40;1.00
3005;DHT22;1512;51.486;6.610;2023-03-05T17:13:54;6.40;1.00
3005;DHT22;1512;51.486;6.610;2023-03-05T17:18:03;6.40;1.00
3005;DHT22;1512;51.486;6.610;2023-03-05T17:22:12;6.40;1.00
3005;DHT22;1512;51.486;6.610;2023-03-05T17:26:22;6.40;1.00
3005;DHT22;1512;51.486;6.610;2023-03-05T17:30:31;6.40;1.00
3005;DHT22;1512;51.486;6.610;2023-03-05T17:34:41;6.40;1.00
3005;DHT22;1512;51.486;6.610;2023-03-05T17:38:51;6.40;1.00
3005;DHT22;1512;51.486;6.610;2023-03-05T17:43:00;6.40;1.00
3005;DHT22;1512;51.486;6.610;2023-03-05T17:47:08;6.30;1.00
3005;DHT22;1512;51.486;6.610;2023-03-05T17:51:17;6.30;1.00
3005;DHT22;1512;51.486;6.610;2023-03-05T17:55:26;6.30;1.00
3005;DHT22;1512;51.486;6.610;2023-03-05T17:59:35;6.30;1.00
3005;DHT22;1512;51.486;6.610;2023-03-05T18:03:43;6.20;1.00
3005;DHT22;1512;51.486;6.610;2023-03-05T18:07:52;6.20;1.00
3005;DHT22;1512;51.486;6.610;2023-03-05T18:12:02;6.20;1.00
3005;DHT22;1512;51.486;6.610;2023-03-05T18:16:11;6.20;1.00
3005;DHT22;1512;51.486;6.610;2023-03-05T18:20:40;6.20;1.00
3005;DHT22;1512;51.486;6.610;2023-03-05T18:24:49;6.10;1.00
3005;DHT22;1512;51.486;6.610;2023-03-05T18:28:58;6.10;1.00
3005;DHT22;1512;51.486;6.610;2023-03-05T18:33:07;6.10;1.00
3005;DHT22;1512;51.486;6.610;2023-03-05T18:37:16;6.00;1.00
3005;DHT22;1512;51.486;6.610;2023-03-05T18:41:25;6.00;1.00
3005;DHT22;1512;51.486;6.610;2023-03-05T18:45:34;6.00;1.00
3005;DHT22;1512;51.486;6.610;2023-03-05T18:49:43;6.00;1.00
3005;DHT22;1512;51.486;6.610;2023-03-05T18:53:52;5.90;1.00
3005;DHT22;1512;51.486;6.610;2023-03-05T18:58:01;5.90;1.00
3005;DHT22;1512;51.486;6.610;2023-03-05T19:02:30;5.90;1.00
3005;DHT22;1512;51.486;6.610;2023-03-05T19:06:40;5.90;1.00
3005;DHT22;1512;51.486;6.610;2023-03-05T19:10:49;5.80;1.00
3005;DHT22;1512;51.486;6.610;2023-03-05T19:14:59;5.70;1.00
3005;DHT22;1512;51.486;6.610;2023-03-05T19:19:17;5.80;1.00
3005;DHT22;1512;51.486;6.610;2023-03-05T19:23:23;5.80;1.00
3005;DHT22;1512;51.486;6.610;2023-03-05T19:27:32;5.70;9.90
3005;DHT22;1512;51.486;6.610;2023-03-05T19:31:40;5.70;21.30
3005;DHT22;1512;51.486;6.610;2023-03-05T19:35:49;5.70;16.90
3005;DHT22;1512;51.486;6.610;2023-03-05T19:39:58;5.70;29.10
3005;DHT22;1512;51.486;6.610;2023-03-05T19:44:06;5.70;1.00
3005;DHT22;1512;51.486;6.610;2023-03-05T19:48:15;5.60;94.30
3005;DHT22;1512;51.486;6.610;2023-03-05T19:52:24;5.60;99.90
3005;DHT22;1512;51.486;6.610;2023-03-05T19:56:35;5.60;99.90
3005;DHT22;1512;51.486;6.610;2023-03-05T20:00:43;5.60;99.90
3005;DHT22;1512;51.486;6.610;2023-03-05T20:04:53;5.50;99.90
3005;DHT22;1512;51.486;6.610;2023-03-05T20:09:02;5.50;99.90
3005;DHT22;1512;51.486;6.610;2023-03-05T20:13:12;5.50;99.90
3005;DHT22;1512;51.486;6.610;2023-03-05T20:17:21;5.60;99.90
3005;DHT22;1512;51.486;6.610;2023-03-05T20:21:32;5.50;99.90
3005;DHT22;1512;51.486;6.610;2023-03-05T20:25:41;5.60;99.90
3005;DHT22;1512;51.486;6.610;2023-03-05T20:29:50;5.50;99.90
3005;DHT22;1512;51.486;6.610;2023-03-05T20:33:58;5.50;99.90
3005;DHT22;1512;51.486;6.610;2023-03-05T20:38:11;5.50;99.90
3005;DHT22;1512;51.486;6.610;2023-03-05T20:42:28;5.40;99.90
3005;DHT22;1512;51.486;6.610;2023-03-05T20:46:38;5.40;99.90
3005;DHT22;1512;51.486;6.610;2023-03-05T20:50:50;5.20;99.90
3005;DHT22;1512;51.486;6.610;2023-03-05T20:54:58;5.20;99.90
3005;DHT22;1512;51.486;6.610;2023-03-05T20:59:08;5.20;99.90
3005;DHT22;1512;51.486;6.610;2023-03-05T21:03:17;5.20;99.90
3005;DHT22;1512;51.486;6.610;2023-03-05T21:07:26;5.20;99.90
3005;DHT22;1512;51.486;6.610;2023-03-05T21:11:36;5.10;99.90
3005;DHT22;1512;51.486;6.610;2023-03-05T21:15:44;5.20;99.90
3005;DHT22;1512;51.486;6.610;2023-03-05T21:19:53;5.20;99.90
3005;DHT22;1512;51.486;6.610;2023-03-05T21:24:01;5.10;99.90
3005;DHT22;1512;51.486;6.610;2023-03-05T21:28:12;5.10;99.90
3005;DHT22;1512;51.486;6.610;2023-03-05T21:32:25;5.10;99.90
3005;DHT22;1512;51.486;6.610;2023-03-05T21:36:34;5.00;99.90
3005;DHT22;1512;51.486;6.610;2023-03-05T21:40:43;5.00;99.90
3005;DHT22;1512;51.486;6.610;2023-03-05T21:44:54;5.00;1.00
3005;DHT22;1512;51.486;6.610;2023-03-05T21:49:03;5.00;99.90
3005;DHT22;1512;51.486;6.610;2023-03-05T21:53:13;5.00;99.90
3005;DHT22;1512;51.486;6.610;2023-03-05T21:57:22;5.00;1.00
3005;DHT22;1512;51.486;6.610;2023-03-05T22:01:31;5.00;1.00
3005;DHT22;1512;51.486;6.610;2023-03-05T22:05:42;5.00;1.00
3005;DHT22;1512;51.486;6.610;2023-03-05T22:09:54;5.00;1.00
3005;DHT22;1512;51.486;6.610;2023-03-05T22:14:03;5.00;1.00
3005;DHT22;1512;51.486;6.610;2023-03-05T22:18:14;5.00;1.00
3005;DHT22;1512;51.486;6.610;2023-03-05T22:22:23;5.00;1.00
3005;DHT22;1512;51.486;6.610;2023-03-05T22:26:37;4.90;1.00
3005;DHT22;1512;51.486;6.610;2023-03-05T22:30:46;4.90;1.00
3005;DHT22;1512;51.486;6.610;2023-03-05T22:34:55;4.80;1.00
3005;DHT22;1512;51.486;6.610;2023-03-05T22:39:04;4.80;1.00
3005;DHT22;1512;51.486;6.610;2023-03-05T22:43:13;4.80;1.00
3005;DHT22;1512;51.486;6.610;2023-03-05T22:47:22;4.70;1.00
3005;DHT22;1512;51.486;6.610;2023-03-05T22:51:31;4.70;1.00
3005;DHT22;1512;51.486;6.610;2023-03-05T22:55:40;4.70;42.10
3005;DHT22;1512;51.486;6.610;2023-03-05T22:59:49;4.70;99.90
3005;DHT22;1512;51.486;6.610;2023-03-05T23:03:58;4.70;99.90
3005;DHT22;1512;51.486;6.610;2023-03-05T23:08:08;4.70;93.50
3005;DHT22;1512;51.486;6.610;2023-03-05T23:12:17;4.70;99.90
3005;DHT22;1512;51.486;6.610;2023-03-05T23:16:25;4.70;99.90
3005;DHT22;1512;51.486;6.610;2023-03-05T23:20:35;4.70;99.90
3005;DHT22;1512;51.486;6.610;2023-03-05T23:24:44;4.60;99.90
3005;DHT22;1512;51.486;6.610;2023-03-05T23:28:52;4.60;99.90
3005;DHT22;1512;51.486;6.610;2023-03-05T23:33:13;4.60;1.00
3005;DHT22;1512;51.486;6.610;2023-03-05T23:37:22;4.60;1.00
3005;DHT22;1512;51.486;6.610;2023-03-05T23:41:31;4.60;1.00
3005;DHT22;1512;51.486;6.610;2023-03-05T23:45:41;4.60;99.90
3005;DHT22;1512;51.486;6.610;2023-03-05T23:49:51;4.70;1.00
3005;DHT22;1512;51.486;6.610;2023-03-05T23:54:00;4.60;1.00
3005;DHT22;1512;51.486;6.610;2023-03-05T23:58:08;4.70;1.00
